Time;durP1;ratioP1;P1;durP2;ratioP2;P2;SDS_P1;SDS_P2;PMS_P1;PMS_P2;Temp;Humidity;BMP_temperature;BMP_pressure;BME280_temperature;BME280_humidity;BME280_pressure;Samples;Min_cycle;Max_cycle;Signal;HPM_P1;HPM_P2
2023/06/14 00:00:40;;;;;;;15.70;6.90;;;;;;;-128.00;-1.00;-1.00;102876;1260;1005402;-79
2023/06/14 00:03:27;;;;;;;12.70;7.20;;;;;;;-128.00;-1.00;-1.00;102158;1259;1060983;-80
2023/06/14 00:05:53;;;;;;;10.90;7.00;;;;;;;-128.00;-1.00;-1.00;102194;1259;1007348;-80
2023/06/14 00:08:21;;;;;;;11.50;6.80;;;;;;;-128.00;-1.00;-1.00;102182;1260;1004068;-78
2023/06/14 00:10:47;;;;;;;11.80;7.00;;;;;;;-128.00;-1.00;-1.00;102248;1264;1004306;-80
2023/06/14 00:13:14;;;;;;;9.00;6.30;;;;;;;-128.00;-1.00;-1.00;102211;1259;1003988;-80
2023/06/14 00:15:40;;;;;;;10.70;7.40;;;;;;;-128.00;-1.00;-1.00;102227;1262;1004454;-80
2023/06/14 00:18:07;;;;;;;12.90;8.40;;;;;;;-128.00;-1.00;-1.00;102340;1259;1004938;-79
2023/06/14 00:20:33;;;;;;;9.90;6.50;;;;;;;-128.00;-1.00;-1.00;102250;1263;1004486;-80
2023/06/14 00:23:00;;;;;;;10.70;6.30;;;;;;;-128.00;-1.00;-1.00;102180;1259;1004632;-80
2023/06/14 00:25:27;;;;;;;9.70;6.30;;;;;;;-128.00;-1.00;-1.00;103886;1263;1003699;-81
2023/06/14 00:27:54;;;;;;;10.20;6.90;;;;;;;-128.00;-1.00;-1.00;102195;1260;1004690;-80
2023/06/14 00:30:20;;;;;;;15.90;8.80;;;;;;;-128.00;-1.00;-1.00;102164;1260;1004265;-80
2023/06/14 00:32:47;;;;;;;19.80;10.30;;;;;;;-128.00;-1.00;-1.00;102234;1259;1005888;-80
2023/06/14 00:35:14;;;;;;;12.70;7.10;;;;;;;-128.00;-1.00;-1.00;102214;1260;1005114;-78
2023/06/14 00:37:40;;;;;;;9.70;6.80;;;;;;;-128.00;-1.00;-1.00;102198;1259;1004748;-79
2023/06/14 00:40:07;;;;;;;9.40;6.40;;;;;;;-128.00;-1.00;-1.00;102123;1259;1004546;-79
2023/06/14 00:42:33;;;;;;;8.80;6.60;;;;;;;-128.00;-1.00;-1.00;102256;1259;1004272;-79
2023/06/14 00:45:00;;;;;;;12.70;6.70;;;;;;;-128.00;-1.00;-1.00;102228;1260;1004293;-79
2023/06/14 00:47:26;;;;;;;12.80;6.60;;;;;;;-128.00;-1.00;-1.00;102236;1259;1004919;-80
2023/06/14 00:49:53;;;;;;;10.20;6.20;;;;;;;-128.00;-1.00;-1.00;102165;1264;1005064;-78
2023/06/14 00:52:20;;;;;;;10.40;6.20;;;;;;;-128.00;-1.00;-1.00;105165;1259;1004390;-81
2023/06/14 00:54:46;;;;;;;8.90;5.90;;;;;;;-128.00;-1.00;-1.00;105135;1259;1003861;-79
2023/06/14 00:57:13;;;;;;;8.00;5.90;;;;;;;-128.00;-1.00;-1.00;104922;1259;1004324;-79
2023/06/14 00:59:46;;;;;;;9.00;6.30;;;;;;;-128.00;-1.00;-1.00;102747;1264;1003978;-80
2023/06/14 01:02:14;;;;;;;9.30;5.30;;;;;;;-128.00;-1.00;-1.00;102204;1259;1061348;-78
2023/06/14 01:04:43;;;;;;;10.20;6.80;;;;;;;-128.00;-1.00;-1.00;102755;1263;1004395;-80
2023/06/14 01:07:14;;;;;;;;;;;;;;;-128.00;-1.00;-1.00;102768;1265;1047416;-79
2023/06/14 01:10:08;;;;;;;12.20;6.70;;;;;;;-128.00;-1.00;-1.00;102773;1259;1046179;-78
2023/06/14 01:13:13;;;;;;;10.40;6.90;;;;;;;-128.00;-1.00;-1.00;102708;1259;1062494;-79
2023/06/14 01:15:39;;;;;;;11.40;6.80;;;;;;;-128.00;-1.00;-1.00;102342;1265;1057724;-78
2023/06/14 01:18:06;;;;;;;11.90;6.60;;;;;;;-128.00;-1.00;-1.00;102536;1265;1003861;-80
2023/06/14 01:20:36;;;;;;;8.40;6.00;;;;;;;-128.00;-1.00;-1.00;102341;1259;1003767;-79
2023/06/14 01:23:03;;;;;;;12.00;7.50;;;;;;;-128.00;-1.00;-1.00;105194;1259;1046081;-79
2023/06/14 01:25:29;;;;;;;11.50;7.50;;;;;;;-128.00;-1.00;-1.00;105171;1259;1004805;-80
2023/06/14 01:27:58;;;;;;;13.60;7.20;;;;;;;-128.00;-1.00;-1.00;105186;1259;1005742;-81
2023/06/14 01:30:27;;;;;;;;;;;;;;;-128.00;-1.00;-1.00;105178;1259;1058690;-79
2023/06/14 01:32:54;;;;;;;12.50;6.50;;;;;;;-128.00;-1.00;-1.00;105087;1262;1045023;-80
2023/06/14 01:35:21;;;;;;;13.10;7.50;;;;;;;-128.00;-1.00;-1.00;105165;1259;1004218;-81
2023/06/14 01:37:48;;;;;;;14.80;6.60;;;;;;;-128.00;-1.00;-1.00;105147;1259;1005081;-81
2023/06/14 01:40:15;;;;;;;14.00;7.40;;;;;;;-128.00;-1.00;-1.00;103599;1259;1004523;-80
2023/06/14 01:42:41;;;;;;;17.00;10.00;;;;;;;-128.00;-1.00;-1.00;102789;1259;1004401;-80
2023/06/14 01:45:08;;;;;;;18.40;12.00;;;;;;;-128.00;-1.00;-1.00;102205;1259;1005478;-80
2023/06/14 01:47:35;;;;;;;12.80;7.80;;;;;;;-128.00;-1.00;-1.00;104095;1260;1005088;-81
2023/06/14 01:50:05;;;;;;;15.40;9.20;;;;;;;-128.00;-1.00;-1.00;105160;1259;1004947;-79
2023/06/14 01:52:31;;;;;;;15.20;7.70;;;;;;;-128.00;-1.00;-1.00;105177;1259;1058274;-81
2023/06/14 01:54:58;;;;;;;16.90;9.00;;;;;;;-128.00;-1.00;-1.00;105160;1260;1003795;-81
2023/06/14 01:57:26;;;;;;;15.30;8.30;;;;;;;-128.00;-1.00;-1.00;105161;1259;1003792;-81
2023/06/14 01:59:52;;;;;;;16.80;8.20;;;;;;;-128.00;-1.00;-1.00;105170;1259;1003966;-81
2023/06/14 02:02:19;;;;;;;14.60;8.40;;;;;;;-128.00;-1.00;-1.00;105212;1259;1004814;-79
2023/06/14 02:04:47;;;;;;;12.80;7.80;;;;;;;-128.00;-1.00;-1.00;105210;1259;1003908;-81
2023/06/14 02:07:14;;;;;;;11.40;7.00;;;;;;;-128.00;-1.00;-1.00;105165;1259;1004299;-79
2023/06/14 02:09:41;;;;;;;15.10;6.90;;;;;;;-128.00;-1.00;-1.00;105072;1259;1004805;-79
2023/06/14 02:12:08;;;;;;;23.70;8.80;;;;;;;-128.00;-1.00;-1.00;105198;1259;1004696;-77
2023/06/14 02:14:35;;;;;;;10.70;7.30;;;;;;;-128.00;-1.00;-1.00;105170;1259;1004719;-79
2023/06/14 02:17:02;;;;;;;12.80;8.20;;;;;;;-128.00;-1.00;-1.00;105192;1259;1003662;-77
2023/06/14 02:19:28;;;;;;;14.60;8.80;;;;;;;-128.00;-1.00;-1.00;105170;1259;1003987;-78
2023/06/14 02:21:55;;;;;;;14.80;8.50;;;;;;;-128.00;-1.00;-1.00;102895;1264;1006776;-79
2023/06/14 02:24:21;;;;;;;14.70;9.70;;;;;;;-128.00;-1.00;-1.00;103078;1260;1004911;-78
2023/06/14 02:26:48;;;;;;;18.10;9.20;;;;;;;-128.00;-1.00;-1.00;105164;1259;1004593;-79
2023/06/14 02:29:15;;;;;;;19.60;9.00;;;;;;;-128.00;-1.00;-1.00;105169;1259;1004096;-78
2023/06/14 02:31:42;;;;;;;13.70;9.00;;;;;;;-128.00;-1.00;-1.00;105141;1259;1004402;-80
2023/06/14 02:34:09;;;;;;;16.10;8.80;;;;;;;-128.00;-1.00;-1.00;105144;1259;1003756;-80
2023/06/14 02:36:41;;;;;;;13.20;8.80;;;;;;;-128.00;-1.00;-1.00;105172;1263;1003805;-79
2023/06/14 02:39:10;;;;;;;14.80;8.50;;;;;;;-128.00;-1.00;-1.00;105195;1258;1061675;-80
2023/06/14 02:41:37;;;;;;;14.80;9.50;;;;;;;-128.00;-1.00;-1.00;105165;1259;1058013;-79
2023/06/14 02:44:03;;;;;;;15.10;9.10;;;;;;;-128.00;-1.00;-1.00;105158;1259;1003778;-79
2023/06/14 02:46:30;;;;;;;17.40;9.30;;;;;;;-128.00;-1.00;-1.00;105171;1259;1004829;-78
2023/06/14 02:48:56;;;;;;;14.70;9.40;;;;;;;-128.00;-1.00;-1.00;103117;1262;1003868;-79
2023/06/14 02:51:23;;;;;;;13.40;8.90;;;;;;;-128.00;-1.00;-1.00;102167;1262;1004075;-77
2023/06/14 02:53:49;;;;;;;14.20;8.50;;;;;;;-128.00;-1.00;-1.00;102149;1260;1004770;-78
2023/06/14 02:56:17;;;;;;;14.30;9.40;;;;;;;-128.00;-1.00;-1.00;102108;1265;1004202;-80
2023/06/14 02:58:43;;;;;;;11.90;7.30;;;;;;;-128.00;-1.00;-1.00;102179;1259;1003999;-79
2023/06/14 03:01:12;;;;;;;12.30;7.40;;;;;;;-128.00;-1.00;-1.00;102138;1264;1005869;-80
2023/06/14 03:03:39;;;;;;;15.70;8.30;;;;;;;-128.00;-1.00;-1.00;105149;1263;1061805;-79
2023/06/14 03:06:05;;;;;;;17.00;9.50;;;;;;;-128.00;-1.00;-1.00;104271;1259;1005018;-79
2023/06/14 03:08:33;;;;;;;15.30;8.90;;;;;;;-128.00;-1.00;-1.00;102087;1265;1004136;-77
2023/06/14 03:10:59;;;;;;;14.80;8.20;;;;;;;-128.00;-1.00;-1.00;102039;1262;1004908;-79
2023/06/14 03:13:26;;;;;;;17.90;10.90;;;;;;;-128.00;-1.00;-1.00;102194;1259;1004528;-77
2023/06/14 03:15:53;;;;;;;17.90;10.10;;;;;;;-128.00;-1.00;-1.00;102180;1265;1004445;-77
2023/06/14 03:18:22;;;;;;;16.20;10.20;;;;;;;-128.00;-1.00;-1.00;102181;1264;1004836;-79
2023/06/14 03:20:48;;;;;;;10.80;7.20;;;;;;;-128.00;-1.00;-1.00;102167;1259;1061912;-79
2023/06/14 03:23:15;;;;;;;17.60;9.20;;;;;;;-128.00;-1.00;-1.00;102097;1260;1004097;-79
2023/06/14 03:25:42;;;;;;;14.00;7.80;;;;;;;-128.00;-1.00;-1.00;102138;1262;1004350;-78
2023/06/14 03:28:08;;;;;;;17.80;11.30;;;;;;;-128.00;-1.00;-1.00;102098;1262;1003985;-77
2023/06/14 03:30:34;;;;;;;16.20;10.70;;;;;;;-128.00;-1.00;-1.00;102163;1260;1004186;-77
2023/06/14 03:33:01;;;;;;;13.00;7.40;;;;;;;-128.00;-1.00;-1.00;102312;1262;1004485;-78
2023/06/14 03:35:28;;;;;;;15.90;8.70;;;;;;;-128.00;-1.00;-1.00;102218;1260;1004624;-78
2023/06/14 03:37:55;;;;;;;12.50;7.70;;;;;;;-128.00;-1.00;-1.00;102266;1261;1005106;-78
2023/06/14 03:40:21;;;;;;;11.30;7.40;;;;;;;-128.00;-1.00;-1.00;102167;1263;1005110;-77
2023/06/14 03:42:48;;;;;;;14.20;9.40;;;;;;;-128.00;-1.00;-1.00;102205;1265;1006832;-78
2023/06/14 03:45:14;;;;;;;13.70;7.60;;;;;;;-128.00;-1.00;-1.00;102287;1260;1003911;-80
2023/06/14 03:47:41;;;;;;;10.80;7.20;;;;;;;-128.00;-1.00;-1.00;102280;1262;1004660;-80
2023/06/14 03:50:08;;;;;;;8.90;6.70;;;;;;;-128.00;-1.00;-1.00;102172;1262;1006191;-80
2023/06/14 03:52:34;;;;;;;11.60;7.80;;;;;;;-128.00;-1.00;-1.00;102228;1259;1005586;-80
2023/06/14 03:55:00;;;;;;;13.30;7.60;;;;;;;-128.00;-1.00;-1.00;102190;1263;1004436;-78
2023/06/14 03:57:27;;;;;;;9.00;6.30;;;;;;;-128.00;-1.00;-1.00;102179;1260;1004072;-78
2023/06/14 03:59:54;;;;;;;11.40;8.10;;;;;;;-128.00;-1.00;-1.00;102227;1265;1005797;-80
2023/06/14 04:02:20;;;;;;;11.30;8.10;;;;;;;-128.00;-1.00;-1.00;102213;1265;1005746;-80
2023/06/14 04:04:48;;;;;;;10.30;8.20;;;;;;;-128.00;-1.00;-1.00;102176;1264;1004372;-79
2023/06/14 04:07:15;;;;;;;9.60;6.80;;;;;;;-128.00;-1.00;-1.00;102191;1260;1004572;-77
2023/06/14 04:09:41;;;;;;;12.50;7.30;;;;;;;-128.00;-1.00;-1.00;102100;1264;1005167;-80
2023/06/14 04:12:09;;;;;;;11.10;6.60;;;;;;;-128.00;-1.00;-1.00;102189;1260;1005240;-77
2023/06/14 04:14:35;;;;;;;10.60;6.80;;;;;;;-128.00;-1.00;-1.00;102138;1264;1004314;-80
2023/06/14 04:17:01;;;;;;;10.40;7.60;;;;;;;-128.00;-1.00;-1.00;102176;1260;1005522;-79
2023/06/14 04:19:28;;;;;;;13.20;8.00;;;;;;;-128.00;-1.00;-1.00;102109;1264;1005224;-77
2023/06/14 04:21:55;;;;;;;12.90;8.60;;;;;;;-128.00;-1.00;-1.00;102182;1259;1003650;-78
2023/06/14 04:24:22;;;;;;;10.00;7.40;;;;;;;-128.00;-1.00;-1.00;102222;1260;1004776;-77
2023/06/14 04:26:49;;;;;;;10.40;7.10;;;;;;;-128.00;-1.00;-1.00;102187;1261;1006440;-79
2023/06/14 04:29:16;;;;;;;10.60;7.50;;;;;;;-128.00;-1.00;-1.00;102195;1264;1006176;-78
2023/06/14 04:31:44;;;;;;;12.50;6.80;;;;;;;-128.00;-1.00;-1.00;102244;1259;1005373;-77
2023/06/14 04:34:16;;;;;;;12.00;7.10;;;;;;;-128.00;-1.00;-1.00;102298;1261;1003499;-79
2023/06/14 04:36:49;;;;;;;7.80;5.10;;;;;;;-128.00;-1.00;-1.00;102285;1262;1047421;-77
2023/06/14 04:39:17;;;;;;;9.70;6.70;;;;;;;-128.00;-1.00;-1.00;102284;1260;1049264;-79
2023/06/14 04:41:44;;;;;;;8.60;6.30;;;;;;;-128.00;-1.00;-1.00;102802;1263;1062803;-79
2023/06/14 04:44:12;;;;;;;8.00;5.40;;;;;;;-128.00;-1.00;-1.00;102278;1262;1004584;-78
2023/06/14 04:46:48;;;;;;;10.20;6.60;;;;;;;-128.00;-1.00;-1.00;102349;1259;1004006;-78
2023/06/14 04:49:15;;;;;;;10.60;5.80;;;;;;;-128.00;-1.00;-1.00;102191;1265;1047992;-78
2023/06/14 04:51:42;;;;;;;8.30;4.80;;;;;;;-128.00;-1.00;-1.00;102126;1261;1004230;-80
2023/06/14 04:54:15;;;;;;;7.60;4.80;;;;;;;-128.00;-1.00;-1.00;102248;1262;1003871;-78
2023/06/14 04:56:47;;;;;;;9.70;4.70;;;;;;;-128.00;-1.00;-1.00;102200;1260;1060722;-77
2023/06/14 04:59:14;;;;;;;8.40;5.40;;;;;;;-128.00;-1.00;-1.00;102203;1259;1059310;-78
2023/06/14 05:01:41;;;;;;;9.80;5.80;;;;;;;-128.00;-1.00;-1.00;102232;1260;1004263;-80
2023/06/14 05:04:07;;;;;;;11.80;6.20;;;;;;;-128.00;-1.00;-1.00;102252;1259;1005185;-79
2023/06/14 05:06:34;;;;;;;10.30;6.40;;;;;;;-128.00;-1.00;-1.00;102244;1265;1004665;-79
2023/06/14 05:09:00;;;;;;;8.80;6.60;;;;;;;-128.00;-1.00;-1.00;102243;1263;1007307;-81
2023/06/14 05:11:27;;;;;;;10.00;7.00;;;;;;;-128.00;-1.00;-1.00;102183;1263;1004559;-80
2023/06/14 05:13:53;;;;;;;8.60;6.20;;;;;;;-128.00;-1.00;-1.00;102227;1261;1003797;-79
2023/06/14 05:16:23;;;;;;;9.80;6.70;;;;;;;-128.00;-1.00;-1.00;102700;1264;1004849;-78
2023/06/14 05:18:50;;;;;;;8.00;6.70;;;;;;;-128.00;-1.00;-1.00;102833;1264;1062096;-79
2023/06/14 05:21:18;;;;;;;8.70;5.40;;;;;;;-128.00;-1.00;-1.00;102725;1260;1004826;-81
2023/06/14 05:23:45;;;;;;;7.50;6.00;;;;;;;-128.00;-1.00;-1.00;102834;1261;1004471;-81
2023/06/14 05:26:11;;;;;;;8.40;5.70;;;;;;;-128.00;-1.00;-1.00;102835;1261;1004164;-79
2023/06/14 05:28:37;;;;;;;7.50;6.50;;;;;;;-128.00;-1.00;-1.00;102950;1263;1005093;-79
2023/06/14 05:31:04;;;;;;;9.40;5.80;;;;;;;-128.00;-1.00;-1.00;102801;1260;1004125;-79
2023/06/14 05:33:30;;;;;;;9.20;5.90;;;;;;;-128.00;-1.00;-1.00;102907;1261;1005284;-79
2023/06/14 05:35:57;;;;;;;13.80;7.30;;;;;;;-128.00;-1.00;-1.00;103179;1261;1003784;-81
2023/06/14 05:38:23;;;;;;;10.60;5.40;;;;;;;-128.00;-1.00;-1.00;103130;1262;1004965;-80
2023/06/14 05:40:49;;;;;;;8.30;5.50;;;;;;;-128.00;-1.00;-1.00;103112;1257;1004760;-81
2023/06/14 05:43:16;;;;;;;7.10;5.80;;;;;;;-128.00;-1.00;-1.00;103078;1260;1003889;-81
2023/06/14 05:45:42;;;;;;;10.30;6.20;;;;;;;-128.00;-1.00;-1.00;103260;1260;1005543;-81
2023/06/14 05:48:09;;;;;;;7.90;6.20;;;;;;;-128.00;-1.00;-1.00;103231;1263;1004062;-78
2023/06/14 05:50:35;;;;;;;7.90;6.10;;;;;;;-128.00;-1.00;-1.00;102463;1264;1004515;-81
2023/06/14 05:53:02;;;;;;;14.40;8.80;;;;;;;-128.00;-1.00;-1.00;102469;1264;1005679;-80
2023/06/14 05:55:28;;;;;;;12.60;7.70;;;;;;;-128.00;-1.00;-1.00;102549;1263;1058596;-81
2023/06/14 05:57:54;;;;;;;11.70;7.30;;;;;;;-128.00;-1.00;-1.00;105105;1260;1004058;-81
2023/06/14 06:00:21;;;;;;;7.70;6.30;;;;;;;-128.00;-1.00;-1.00;102653;1263;1004295;-80
2023/06/14 06:02:48;;;;;;;10.40;7.40;;;;;;;-128.00;-1.00;-1.00;103538;1263;1004310;-79
2023/06/14 06:05:15;;;;;;;12.50;6.70;;;;;;;-128.00;-1.00;-1.00;102465;1257;1004388;-80
2023/06/14 06:07:44;;;;;;;10.00;5.40;;;;;;;-128.00;-1.00;-1.00;102504;1264;1004426;-79
2023/06/14 06:10:11;;;;;;;10.50;5.80;;;;;;;-128.00;-1.00;-1.00;103087;1263;1058749;-79
2023/06/14 06:12:37;;;;;;;9.30;5.80;;;;;;;-128.00;-1.00;-1.00;103019;1261;1003959;-81
2023/06/14 06:15:04;;;;;;;11.90;7.20;;;;;;;-128.00;-1.00;-1.00;104843;1258;1004473;-79
2023/06/14 06:17:31;;;;;;;10.20;5.80;;;;;;;-128.00;-1.00;-1.00;103782;1264;1003866;-81
2023/06/14 06:19:57;;;;;;;10.10;6.50;;;;;;;-128.00;-1.00;-1.00;103137;1261;1005228;-78
2023/06/14 06:22:24;;;;;;;11.60;7.40;;;;;;;-128.00;-1.00;-1.00;102856;1260;1004981;-79
2023/06/14 06:24:50;;;;;;;9.70;6.30;;;;;;;-128.00;-1.00;-1.00;103020;1260;1004720;-81
2023/06/14 06:27:18;;;;;;;8.20;6.20;;;;;;;-128.00;-1.00;-1.00;103174;1260;1004943;-81
2023/06/14 06:29:45;;;;;;;9.60;5.50;;;;;;;-128.00;-1.00;-1.00;103052;1264;1004272;-79
2023/06/14 06:32:11;;;;;;;8.90;5.60;;;;;;;-128.00;-1.00;-1.00;103152;1261;1005434;-81
2023/06/14 06:34:38;;;;;;;5.80;4.50;;;;;;;-128.00;-1.00;-1.00;103207;1263;1004352;-81
2023/06/14 06:37:04;;;;;;;6.90;5.70;;;;;;;-128.00;-1.00;-1.00;103237;1264;1004094;-79
2023/06/14 06:39:31;;;;;;;7.90;4.50;;;;;;;-128.00;-1.00;-1.00;103062;1260;1004244;-81
2023/06/14 06:41:57;;;;;;;5.80;4.50;;;;;;;-128.00;-1.00;-1.00;102975;1260;1005024;-81
2023/06/14 06:44:23;;;;;;;8.50;5.10;;;;;;;-128.00;-1.00;-1.00;102839;1259;1004626;-79
2023/06/14 06:46:50;;;;;;;6.50;5.10;;;;;;;-128.00;-1.00;-1.00;103121;1260;1005016;-79
2023/06/14 06:49:16;;;;;;;9.50;6.60;;;;;;;-128.00;-1.00;-1.00;103176;1263;1004970;-79
2023/06/14 06:51:43;;;;;;;8.30;6.40;;;;;;;-128.00;-1.00;-1.00;102961;1260;1004761;-79
2023/06/14 06:54:10;;;;;;;9.60;6.20;;;;;;;-128.00;-1.00;-1.00;102955;1259;1004409;-79
2023/06/14 06:56:37;;;;;;;7.30;5.70;;;;;;;-128.00;-1.00;-1.00;103286;1263;1004298;-81
2023/06/14 06:59:03;;;;;;;7.20;5.00;;;;;;;-128.00;-1.00;-1.00;103095;1259;1004004;-82
2023/06/14 07:01:29;;;;;;;9.30;6.00;;;;;;;-128.00;-1.00;-1.00;102891;1260;1004053;-79
2023/06/14 07:03:56;;;;;;;7.80;5.30;;;;;;;-128.00;-1.00;-1.00;102923;1260;1003901;-79
2023/06/14 07:06:22;;;;;;;7.20;4.80;;;;;;;-128.00;-1.00;-1.00;103034;1259;1004107;-82
2023/06/14 07:08:49;;;;;;;8.90;4.40;;;;;;;-128.00;-1.00;-1.00;103039;1263;1004093;-82
2023/06/14 07:11:15;;;;;;;7.30;4.70;;;;;;;-128.00;-1.00;-1.00;103131;1263;1005617;-82
2023/06/14 07:13:42;;;;;;;7.40;4.40;;;;;;;-128.00;-1.00;-1.00;102939;1260;1003958;-81
2023/06/14 07:16:08;;;;;;;6.20;4.40;;;;;;;-128.00;-1.00;-1.00;103042;1260;1004184;-82
2023/06/14 07:18:35;;;;;;;5.30;4.10;;;;;;;-128.00;-1.00;-1.00;102986;1264;1004884;-79
2023/06/14 07:21:01;;;;;;;7.40;5.70;;;;;;;-128.00;-1.00;-1.00;103093;1260;1004406;-82
2023/06/14 07:23:28;;;;;;;7.80;5.20;;;;;;;-128.00;-1.00;-1.00;103092;1261;1005351;-79
2023/06/14 07:25:54;;;;;;;9.60;5.30;;;;;;;-128.00;-1.00;-1.00;103078;1260;1006141;-79
2023/06/14 07:28:20;;;;;;;6.40;4.80;;;;;;;-128.00;-1.00;-1.00;102976;1264;1004702;-77
2023/06/14 07:30:48;;;;;;;5.90;4.40;;;;;;;-128.00;-1.00;-1.00;102367;1260;1058323;-79
2023/06/14 07:33:14;;;;;;;6.90;4.50;;;;;;;-128.00;-1.00;-1.00;102392;1260;1004250;-77
2023/06/14 07:35:41;;;;;;;6.60;5.00;;;;;;;-128.00;-1.00;-1.00;102404;1259;1004493;-77
2023/06/14 07:38:07;;;;;;;5.90;4.10;;;;;;;-128.00;-1.00;-1.00;102427;1261;1004321;-79
2023/06/14 07:40:34;;;;;;;5.50;4.60;;;;;;;-128.00;-1.00;-1.00;102296;1261;1004276;-79
2023/06/14 07:43:02;;;;;;;6.00;4.20;;;;;;;-128.00;-1.00;-1.00;102219;1264;1004770;-77
2023/06/14 07:45:28;;;;;;;5.40;4.20;;;;;;;-128.00;-1.00;-1.00;102399;1260;1004493;-80
2023/06/14 07:47:55;;;;;;;6.80;3.50;;;;;;;-128.00;-1.00;-1.00;102491;1260;1004533;-81
2023/06/14 07:50:21;;;;;;;5.00;3.50;;;;;;;-128.00;-1.00;-1.00;103291;1260;1003590;-81
2023/06/14 07:52:48;;;;;;;4.70;3.80;;;;;;;-128.00;-1.00;-1.00;102830;1264;1004407;-79
2023/06/14 07:55:15;;;;;;;7.40;4.20;;;;;;;-128.00;-1.00;-1.00;103086;1261;1003828;-81
2023/06/14 07:57:42;;;;;;;5.60;4.20;;;;;;;-128.00;-1.00;-1.00;103119;1260;1004590;-79
2023/06/14 08:00:14;;;;;;;8.10;5.30;;;;;;;-128.00;-1.00;-1.00;102875;1260;1004351;-78
2023/06/14 08:02:42;;;;;;;6.30;4.80;;;;;;;-128.00;-1.00;-1.00;103241;1263;1047458;-79
2023/06/14 08:05:10;;;;;;;5.20;4.20;;;;;;;-128.00;-1.00;-1.00;103209;1257;1004182;-78
2023/06/14 08:07:37;;;;;;;7.50;5.50;;;;;;;-128.00;-1.00;-1.00;103279;1261;1006886;-78
2023/06/14 08:10:04;;;;;;;7.20;5.80;;;;;;;-128.00;-1.00;-1.00;105049;1259;1004442;-81
2023/06/14 08:12:31;;;;;;;6.70;5.10;;;;;;;-128.00;-1.00;-1.00;105043;1258;1003772;-81
2023/06/14 08:14:57;;;;;;;8.50;5.10;;;;;;;-128.00;-1.00;-1.00;105130;1259;1005334;-79
2023/06/14 08:17:24;;;;;;;8.70;5.50;;;;;;;-128.00;-1.00;-1.00;105087;1260;1003759;-82
2023/06/14 08:19:51;;;;;;;7.30;5.80;;;;;;;-128.00;-1.00;-1.00;105123;1259;1003988;-80
2023/06/14 08:22:18;;;;;;;6.60;5.10;;;;;;;-128.00;-1.00;-1.00;103059;1257;1003891;-78
2023/06/14 08:24:44;;;;;;;7.10;5.30;;;;;;;-128.00;-1.00;-1.00;103030;1263;1005799;-81
2023/06/14 08:27:12;;;;;;;7.10;4.90;;;;;;;-128.00;-1.00;-1.00;103100;1260;1004316;-78
2023/06/14 08:29:40;;;;;;;8.30;5.00;;;;;;;-128.00;-1.00;-1.00;103300;1259;1004148;-78
2023/06/14 08:32:06;;;;;;;8.70;5.50;;;;;;;-128.00;-1.00;-1.00;102964;1259;1004180;-78
2023/06/14 08:34:33;;;;;;;10.00;7.00;;;;;;;-128.00;-1.00;-1.00;102981;1259;1004472;-81
2023/06/14 08:37:00;;;;;;;8.10;5.90;;;;;;;-128.00;-1.00;-1.00;102434;1260;1004074;-78
2023/06/14 08:39:26;;;;;;;8.70;6.10;;;;;;;-128.00;-1.00;-1.00;103175;1258;1004660;-78
2023/06/14 08:41:53;;;;;;;8.50;5.90;;;;;;;-128.00;-1.00;-1.00;102949;1257;1007473;-81
2023/06/14 08:44:19;;;;;;;11.20;6.60;;;;;;;-128.00;-1.00;-1.00;102645;1258;1004380;-78
2023/06/14 08:46:47;;;;;;;14.40;7.50;;;;;;;-128.00;-1.00;-1.00;103230;1257;1004847;-81
2023/06/14 08:49:14;;;;;;;9.60;6.50;;;;;;;-128.00;-1.00;-1.00;103261;1259;1004513;-81
2023/06/14 08:51:41;;;;;;;9.90;6.70;;;;;;;-128.00;-1.00;-1.00;103075;1260;1005308;-79
2023/06/14 08:54:08;;;;;;;7.80;5.90;;;;;;;-128.00;-1.00;-1.00;104395;1260;1003771;-80
2023/06/14 08:56:34;;;;;;;10.00;6.30;;;;;;;-128.00;-1.00;-1.00;103177;1259;1005001;-78
2023/06/14 08:59:04;;;;;;;8.80;5.30;;;;;;;-128.00;-1.00;-1.00;102932;1259;1004480;-79
2023/06/14 09:01:34;;;;;;;10.10;5.40;;;;;;;-128.00;-1.00;-1.00;102909;1260;1046979;-81
2023/06/14 09:04:01;;;;;;;7.50;6.20;;;;;;;-128.00;-1.00;-1.00;102744;1260;1047506;-81
2023/06/14 09:06:28;;;;;;;11.00;6.10;;;;;;;-128.00;-1.00;-1.00;103070;1263;1004403;-78
2023/06/14 09:08:58;;;;;;;6.20;4.10;;;;;;;-128.00;-1.00;-1.00;103044;1260;1004728;-79
2023/06/14 09:11:26;;;;;;;6.00;5.30;;;;;;;-128.00;-1.00;-1.00;103122;1259;1059660;-79
2023/06/14 09:13:52;;;;;;;5.70;3.50;;;;;;;-128.00;-1.00;-1.00;102886;1263;1004378;-82
2023/06/14 09:16:19;;;;;;;6.10;4.30;;;;;;;-128.00;-1.00;-1.00;103319;1260;1004036;-81
2023/06/14 09:18:49;;;;;;;3.80;3.00;;;;;;;-128.00;-1.00;-1.00;103196;1259;1005252;-79
2023/06/14 09:21:16;;;;;;;4.20;3.10;;;;;;;-128.00;-1.00;-1.00;102975;1260;1058247;-79
2023/06/14 09:23:44;;;;;;;6.90;3.80;;;;;;;-128.00;-1.00;-1.00;102980;1263;1004589;-79
2023/06/14 09:26:12;;;;;;;4.20;3.00;;;;;;;-128.00;-1.00;-1.00;103292;1259;1004608;-82
2023/06/14 09:28:43;;;;;;;3.50;3.20;;;;;;;-128.00;-1.00;-1.00;103312;1259;1004150;-81
2023/06/14 09:31:11;;;;;;;5.70;3.30;;;;;;;-128.00;-1.00;-1.00;105161;1259;1063769;-79
2023/06/14 09:33:37;;;;;;;7.90;3.30;;;;;;;-128.00;-1.00;-1.00;105121;1260;1006045;-79
2023/06/14 09:36:06;;;;;;;4.10;3.20;;;;;;;-128.00;-1.00;-1.00;105112;1258;1003735;-79
2023/06/14 09:38:34;;;;;;;5.00;3.30;;;;;;;-128.00;-1.00;-1.00;105063;1259;1044664;-82
2023/06/14 09:41:00;;;;;;;4.30;3.30;;;;;;;-128.00;-1.00;-1.00;105179;1258;1004131;-82
2023/06/14 09:43:27;;;;;;;5.00;4.10;;;;;;;-128.00;-1.00;-1.00;105071;1259;1005469;-79
2023/06/14 09:45:54;;;;;;;4.60;3.50;;;;;;;-128.00;-1.00;-1.00;105066;1260;1004435;-79
2023/06/14 09:48:20;;;;;;;5.40;3.60;;;;;;;-128.00;-1.00;-1.00;103795;1259;1004692;-82
2023/06/14 09:50:49;;;;;;;4.60;3.30;;;;;;;-128.00;-1.00;-1.00;102945;1260;1005181;-82
2023/06/14 09:53:16;;;;;;;4.10;3.10;;;;;;;-128.00;-1.00;-1.00;102993;1259;1047416;-79
2023/06/14 09:55:42;;;;;;;7.00;3.50;;;;;;;-128.00;-1.00;-1.00;102993;1260;1004332;-82
2023/06/14 09:58:09;;;;;;;3.50;2.80;;;;;;;-128.00;-1.00;-1.00;103117;1263;1003562;-79
2023/06/14 10:00:36;;;;;;;2.90;2.40;;;;;;;-128.00;-1.00;-1.00;103047;1260;1006032;-82
2023/06/14 10:03:16;;;;;;;3.00;2.50;;;;;;;-128.00;-1.00;-1.00;102936;1259;1004723;-82
2023/06/14 10:05:45;;;;;;;6.00;3.50;;;;;;;-128.00;-1.00;-1.00;103025;1264;1047137;-79
2023/06/14 10:08:16;;;;;;;4.50;3.70;;;;;;;-128.00;-1.00;-1.00;102968;1259;1062742;-82
2023/06/14 10:10:43;;;;;;;3.00;2.30;;;;;;;-128.00;-1.00;-1.00;102990;1259;1061450;-82
2023/06/14 10:13:10;;;;;;;3.70;2.70;;;;;;;-128.00;-1.00;-1.00;102738;1258;1004494;-79
2023/06/14 10:15:49;;;;;;;3.50;2.50;;;;;;;-128.00;-1.00;-1.00;102814;1260;1004795;-82
2023/06/14 10:18:22;;;;;;;4.60;2.50;;;;;;;-128.00;-1.00;-1.00;102950;1259;1047736;-83
2023/06/14 10:20:53;;;;;;;3.80;3.10;;;;;;;-128.00;-1.00;-1.00;102796;1259;1062730;-82
2023/06/14 10:23:21;;;;;;;5.60;3.40;;;;;;;-128.00;-1.00;-1.00;102797;1259;1058186;-82
2023/06/14 10:25:56;;;;;;;4.30;3.80;;;;;;;-128.00;-1.00;-1.00;102900;1259;1003608;-82
2023/06/14 10:28:24;;;;;;;5.00;4.40;;;;;;;-128.00;-1.00;-1.00;102982;1259;1046257;-80
2023/06/14 10:31:06;;;;;;;4.90;4.30;;;;;;;-128.00;-1.00;-1.00;102860;1259;1005473;-81
2023/06/14 10:33:33;;;;;;;3.10;2.40;;;;;;;-128.00;-1.00;-1.00;102644;1260;1061922;-83
2023/06/14 10:36:26;;;;;;;7.50;4.60;;;;;;;-128.00;-1.00;-1.00;102935;1260;1003680;-83
2023/06/14 10:38:59;;;;;;;7.70;3.40;;;;;;;-128.00;-1.00;-1.00;102710;1261;1061007;-80
2023/06/14 10:41:28;;;;;;;3.40;2.40;;;;;;;-128.00;-1.00;-1.00;102816;1260;1047253;-83
2023/06/14 10:44:13;;;;;;;2.70;2.20;;;;;;;-128.00;-1.00;-1.00;102721;1263;1046815;-82
2023/06/14 10:46:41;;;;;;;3.30;2.80;;;;;;;-128.00;-1.00;-1.00;103046;1259;1064602;-80
2023/06/14 10:49:09;;;;;;;3.10;2.50;;;;;;;-128.00;-1.00;-1.00;102719;1260;1003927;-82
2023/06/14 10:51:46;;;;;;;2.90;2.60;;;;;;;-128.00;-1.00;-1.00;102667;1259;1059987;-82
2023/06/14 10:54:15;;;;;;;3.00;2.40;;;;;;;-128.00;-1.00;-1.00;102710;1259;1047167;-79
2023/06/14 10:56:49;;;;;;;3.80;2.80;;;;;;;-128.00;-1.00;-1.00;103091;1259;1047248;-81
2023/06/14 10:59:15;;;;;;;4.20;3.50;;;;;;;-128.00;-1.00;-1.00;102917;1260;1064617;-79
2023/06/14 11:01:59;;;;;;;3.70;2.60;;;;;;;-128.00;-1.00;-1.00;102673;1260;1003796;-79
2023/06/14 11:04:39;;;;;;;3.20;2.50;;;;;;;-128.00;-1.00;-1.00;102940;1259;1058485;-79
2023/06/14 11:07:31;;;;;;;2.40;2.20;;;;;;;-128.00;-1.00;-1.00;102869;1265;1048096;-82
2023/06/14 11:10:36;;;;;;;2.30;2.10;;;;;;;-128.00;-1.00;-1.00;102856;1264;1046252;-83
2023/06/14 11:13:03;;;;;;;5.10;2.40;;;;;;;-128.00;-1.00;-1.00;102445;1259;1062409;-82
2023/06/14 11:15:30;;;;;;;3.50;2.50;;;;;;;-128.00;-1.00;-1.00;102890;1259;1004629;-79
2023/06/14 11:17:57;;;;;;;2.70;2.30;;;;;;;-128.00;-1.00;-1.00;102835;1259;1004792;-82